Terminal Aerodrome Forecast
Issued by NWS Wilmington, OH

Current Version | Previous Version | Text Only | Print | Product List | Glossary Off
Versions: 1 2 3 4 5 6 7 8 9 10 11 12 13 14 15 16

825
FTUS41 KILN 161742 AAB
TAFILN
TAF AMD
KILN 161742Z 1618/1718 28007KT P6SM SCT030 BKN120
     FM162100 34007KT P6SM OVC060
     FM170000 17004KT P6SM BKN120
     FM171000 20006KT P6SM SCT150
     FM171500 22011KT P6SM SCT150=

USA.gov is the U.S. government's official web portal to all federal, state and local government web resources and services.